sensor_id;sensor_type;location;lat;lon;timestamp;P1;durP1;ratioP1;P2;durP2;ratioP2
38123;SDS011;23934;47.998;9.832;2022-11-20T00:01:50;12.10;;;4.97;;
38123;SDS011;23934;47.998;9.832;2022-11-20T00:04:16;15.65;;;6.68;;
38123;SDS011;23934;47.998;9.832;2022-11-20T00:06:42;20.65;;;6.82;;
38123;SDS011;23934;47.998;9.832;2022-11-20T00:09:09;11.55;;;5.63;;
38123;SDS011;23934;47.998;9.832;2022-11-20T00:11:35;16.80;;;6.50;;
38123;SDS011;23934;47.998;9.832;2022-11-20T00:14:01;14.50;;;5.40;;
38123;SDS011;23934;47.998;9.832;2022-11-20T00:16:29;11.35;;;5.40;;
38123;SDS011;23934;47.998;9.832;2022-11-20T00:18:55;22.15;;;7.35;;
38123;SDS011;23934;47.998;9.832;2022-11-20T00:21:22;15.40;;;6.65;;
38123;SDS011;23934;47.998;9.832;2022-11-20T00:23:49;11.73;;;5.22;;
38123;SDS011;23934;47.998;9.832;2022-11-20T00:26:16;16.67;;;6.38;;
38123;SDS011;23934;47.998;9.832;2022-11-20T00:28:42;30.23;;;6.43;;
38123;SDS011;23934;47.998;9.832;2022-11-20T00:31:10;14.63;;;5.68;;
38123;SDS011;23934;47.998;9.832;2022-11-20T00:33:36;14.13;;;4.75;;
38123;SDS011;23934;47.998;9.832;2022-11-20T00:36:06;10.10;;;5.03;;
38123;SDS011;23934;47.998;9.832;2022-11-20T00:38:33;15.50;;;5.50;;
38123;SDS011;23934;47.998;9.832;2022-11-20T00:40:59;13.32;;;6.22;;
38123;SDS011;23934;47.998;9.832;2022-11-20T00:43:26;20.20;;;6.32;;
38123;SDS011;23934;47.998;9.832;2022-11-20T00:45:58;16.05;;;6.28;;
38123;SDS011;23934;47.998;9.832;2022-11-20T00:48:25;18.13;;;6.50;;
38123;SDS011;23934;47.998;9.832;2022-11-20T00:50:51;18.05;;;7.57;;
38123;SDS011;23934;47.998;9.832;2022-11-20T00:53:17;16.33;;;6.13;;
38123;SDS011;23934;47.998;9.832;2022-11-20T00:55:43;18.25;;;6.35;;
38123;SDS011;23934;47.998;9.832;2022-11-20T00:58:09;13.73;;;5.47;;
38123;SDS011;23934;47.998;9.832;2022-11-20T01:00:35;14.55;;;5.18;;
38123;SDS011;23934;47.998;9.832;2022-11-20T01:03:00;16.08;;;5.88;;
38123;SDS011;23934;47.998;9.832;2022-11-20T01:05:26;19.05;;;6.72;;
38123;SDS011;23934;47.998;9.832;2022-11-20T01:07:52;17.15;;;6.60;;
38123;SDS011;23934;47.998;9.832;2022-11-20T01:10:18;18.60;;;6.60;;
38123;SDS011;23934;47.998;9.832;2022-11-20T01:12:44;14.32;;;6.07;;
38123;SDS011;23934;47.998;9.832;2022-11-20T01:15:30;14.38;;;6.20;;
38123;SDS011;23934;47.998;9.832;2022-11-20T01:17:59;15.20;;;5.85;;
38123;SDS011;23934;47.998;9.832;2022-11-20T01:20:25;18.10;;;6.05;;
38123;SDS011;23934;47.998;9.832;2022-11-20T01:22:50;13.00;;;4.88;;
38123;SDS011;23934;47.998;9.832;2022-11-20T01:25:16;12.60;;;5.18;;
38123;SDS011;23934;47.998;9.832;2022-11-20T01:27:42;10.52;;;4.65;;
38123;SDS011;23934;47.998;9.832;2022-11-20T01:30:08;14.77;;;5.68;;
38123;SDS011;23934;47.998;9.832;2022-11-20T01:32:34;17.13;;;5.80;;
38123;SDS011;23934;47.998;9.832;2022-11-20T01:35:00;25.27;;;6.55;;
38123;SDS011;23934;47.998;9.832;2022-11-20T01:37:26;14.40;;;6.18;;
38123;SDS011;23934;47.998;9.832;2022-11-20T01:39:52;18.05;;;6.45;;
38123;SDS011;23934;47.998;9.832;2022-11-20T01:42:18;19.92;;;6.20;;
38123;SDS011;23934;47.998;9.832;2022-11-20T01:45:42;15.70;;;5.50;;
38123;SDS011;23934;47.998;9.832;2022-11-20T01:47:48;19.98;;;6.43;;
38123;SDS011;23934;47.998;9.832;2022-11-20T01:50:17;15.70;;;5.97;;
38123;SDS011;23934;47.998;9.832;2022-11-20T01:52:58;18.63;;;6.68;;
38123;SDS011;23934;47.998;9.832;2022-11-20T01:55:28;17.08;;;6.00;;
38123;SDS011;23934;47.998;9.832;2022-11-20T01:57:54;15.75;;;6.63;;
38123;SDS011;23934;47.998;9.832;2022-11-20T02:00:21;20.98;;;7.03;;
38123;SDS011;23934;47.998;9.832;2022-11-20T02:02:48;17.02;;;6.28;;
38123;SDS011;23934;47.998;9.832;2022-11-20T02:07:43;17.20;;;6.70;;
38123;SDS011;23934;47.998;9.832;2022-11-20T02:10:09;15.05;;;5.85;;
38123;SDS011;23934;47.998;9.832;2022-11-20T02:12:35;24.13;;;6.88;;
38123;SDS011;23934;47.998;9.832;2022-11-20T02:15:19;24.15;;;6.75;;
38123;SDS011;23934;47.998;9.832;2022-11-20T02:17:45;26.05;;;7.97;;
38123;SDS011;23934;47.998;9.832;2022-11-20T02:20:11;22.13;;;6.55;;
38123;SDS011;23934;47.998;9.832;2022-11-20T02:25:21;28.25;;;7.20;;
38123;SDS011;23934;47.998;9.832;2022-11-20T02:27:48;26.88;;;7.35;;
38123;SDS011;23934;47.998;9.832;2022-11-20T02:30:14;22.38;;;7.20;;
38123;SDS011;23934;47.998;9.832;2022-11-20T02:32:40;16.10;;;6.13;;
38123;SDS011;23934;47.998;9.832;2022-11-20T02:35:35;17.55;;;5.95;;
38123;SDS011;23934;47.998;9.832;2022-11-20T02:37:57;21.17;;;6.45;;
38123;SDS011;23934;47.998;9.832;2022-11-20T02:40:23;23.13;;;8.05;;
38123;SDS011;23934;47.998;9.832;2022-11-20T02:42:56;21.35;;;7.68;;
38123;SDS011;23934;47.998;9.832;2022-11-20T02:45:22;21.30;;;6.80;;
38123;SDS011;23934;47.998;9.832;2022-11-20T02:47:49;21.30;;;6.38;;
38123;SDS011;23934;47.998;9.832;2022-11-20T02:50:15;21.38;;;7.65;;
38123;SDS011;23934;47.998;9.832;2022-11-20T02:52:41;21.73;;;7.57;;
38123;SDS011;23934;47.998;9.832;2022-11-20T02:55:07;18.67;;;7.25;;
38123;SDS011;23934;47.998;9.832;2022-11-20T02:57:34;22.63;;;7.13;;
38123;SDS011;23934;47.998;9.832;2022-11-20T03:00:00;19.98;;;7.25;;
38123;SDS011;23934;47.998;9.832;2022-11-20T03:02:29;19.42;;;7.53;;
38123;SDS011;23934;47.998;9.832;2022-11-20T03:04:55;22.00;;;8.45;;
38123;SDS011;23934;47.998;9.832;2022-11-20T03:07:21;23.17;;;7.93;;
38123;SDS011;23934;47.998;9.832;2022-11-20T03:09:47;23.75;;;7.90;;
38123;SDS011;23934;47.998;9.832;2022-11-20T03:12:13;23.15;;;7.40;;
38123;SDS011;23934;47.998;9.832;2022-11-20T03:14:39;19.83;;;6.95;;
38123;SDS011;23934;47.998;9.832;2022-11-20T03:17:05;19.85;;;6.78;;
38123;SDS011;23934;47.998;9.832;2022-11-20T03:19:31;19.10;;;6.78;;
38123;SDS011;23934;47.998;9.832;2022-11-20T03:21:57;20.80;;;6.63;;
38123;SDS011;23934;47.998;9.832;2022-11-20T03:24:23;17.33;;;6.30;;
38123;SDS011;23934;47.998;9.832;2022-11-20T03:26:49;18.80;;;7.25;;
38123;SDS011;23934;47.998;9.832;2022-11-20T03:29:15;28.40;;;8.13;;
38123;SDS011;23934;47.998;9.832;2022-11-20T03:31:41;21.40;;;6.88;;
38123;SDS011;23934;47.998;9.832;2022-11-20T03:34:08;15.43;;;6.00;;
38123;SDS011;23934;47.998;9.832;2022-11-20T03:36:34;23.50;;;7.10;;
38123;SDS011;23934;47.998;9.832;2022-11-20T03:39:00;17.05;;;6.07;;
38123;SDS011;23934;47.998;9.832;2022-11-20T03:41:27;21.90;;;7.18;;
38123;SDS011;23934;47.998;9.832;2022-11-20T03:43:57;14.75;;;5.20;;
38123;SDS011;23934;47.998;9.832;2022-11-20T03:46:23;18.73;;;5.82;;
38123;SDS011;23934;47.998;9.832;2022-11-20T03:48:49;19.08;;;7.80;;
38123;SDS011;23934;47.998;9.832;2022-11-20T03:51:20;17.38;;;6.20;;
38123;SDS011;23934;47.998;9.832;2022-11-20T03:53:46;23.55;;;7.85;;
38123;SDS011;23934;47.998;9.832;2022-11-20T03:56:13;18.48;;;6.40;;
38123;SDS011;23934;47.998;9.832;2022-11-20T03:58:40;19.77;;;6.75;;
38123;SDS011;23934;47.998;9.832;2022-11-20T04:01:07;14.38;;;6.35;;
38123;SDS011;23934;47.998;9.832;2022-11-20T04:03:34;20.08;;;7.35;;
38123;SDS011;23934;47.998;9.832;2022-11-20T04:06:07;17.90;;;5.63;;
38123;SDS011;23934;47.998;9.832;2022-11-20T04:08:33;26.17;;;7.13;;
38123;SDS011;23934;47.998;9.832;2022-11-20T04:13:37;15.85;;;5.60;;
38123;SDS011;23934;47.998;9.832;2022-11-20T04:16:04;17.52;;;6.05;;
38123;SDS011;23934;47.998;9.832;2022-11-20T04:18:30;19.77;;;6.50;;
38123;SDS011;23934;47.998;9.832;2022-11-20T04:20:56;19.85;;;7.47;;
38123;SDS011;23934;47.998;9.832;2022-11-20T04:23:23;16.88;;;6.60;;
38123;SDS011;23934;47.998;9.832;2022-11-20T04:25:49;13.90;;;4.93;;
38123;SDS011;23934;47.998;9.832;2022-11-20T04:28:14;17.73;;;6.05;;
38123;SDS011;23934;47.998;9.832;2022-11-20T04:30:40;18.23;;;6.20;;
38123;SDS011;23934;47.998;9.832;2022-11-20T04:33:06;14.70;;;6.22;;
38123;SDS011;23934;47.998;9.832;2022-11-20T04:35:35;15.98;;;5.80;;
38123;SDS011;23934;47.998;9.832;2022-11-20T04:38:02;18.60;;;6.47;;
38123;SDS011;23934;47.998;9.832;2022-11-20T04:40:28;20.48;;;6.13;;
38123;SDS011;23934;47.998;9.832;2022-11-20T04:42:54;17.75;;;6.10;;
38123;SDS011;23934;47.998;9.832;2022-11-20T04:45:21;20.30;;;5.40;;
38123;SDS011;23934;47.998;9.832;2022-11-20T04:47:48;15.57;;;4.97;;
38123;SDS011;23934;47.998;9.832;2022-11-20T04:50:14;12.75;;;5.03;;
38123;SDS011;23934;47.998;9.832;2022-11-20T04:52:40;15.77;;;6.35;;
38123;SDS011;23934;47.998;9.832;2022-11-20T04:55:06;12.18;;;5.20;;
38123;SDS011;23934;47.998;9.832;2022-11-20T04:57:32;16.20;;;6.72;;
38123;SDS011;23934;47.998;9.832;2022-11-20T04:59:58;14.60;;;6.35;;
38123;SDS011;23934;47.998;9.832;2022-11-20T05:02:24;19.38;;;7.43;;
38123;SDS011;23934;47.998;9.832;2022-11-20T05:04:50;18.17;;;6.35;;
38123;SDS011;23934;47.998;9.832;2022-11-20T05:07:16;18.73;;;6.88;;
38123;SDS011;23934;47.998;9.832;2022-11-20T05:09:42;15.75;;;6.00;;
38123;SDS011;23934;47.998;9.832;2022-11-20T05:12:08;19.73;;;7.03;;
38123;SDS011;23934;47.998;9.832;2022-11-20T05:14:34;20.58;;;6.75;;
38123;SDS011;23934;47.998;9.832;2022-11-20T05:17:00;21.02;;;8.13;;
38123;SDS011;23934;47.998;9.832;2022-11-20T05:19:26;16.50;;;6.22;;
38123;SDS011;23934;47.998;9.832;2022-11-20T05:21:52;16.60;;;5.55;;
38123;SDS011;23934;47.998;9.832;2022-11-20T05:24:18;17.83;;;6.07;;
38123;SDS011;23934;47.998;9.832;2022-11-20T05:26:44;20.02;;;6.57;;
38123;SDS011;23934;47.998;9.832;2022-11-20T05:29:11;21.77;;;7.70;;
38123;SDS011;23934;47.998;9.832;2022-11-20T05:31:38;21.55;;;6.32;;
38123;SDS011;23934;47.998;9.832;2022-11-20T05:34:04;15.13;;;5.15;;
38123;SDS011;23934;47.998;9.832;2022-11-20T05:36:31;12.90;;;6.03;;
38123;SDS011;23934;47.998;9.832;2022-11-20T05:38:57;25.65;;;7.30;;
38123;SDS011;23934;47.998;9.832;2022-11-20T05:41:23;19.92;;;6.93;;
38123;SDS011;23934;47.998;9.832;2022-11-20T05:43:49;19.98;;;6.30;;
38123;SDS011;23934;47.998;9.832;2022-11-20T05:46:16;18.83;;;7.78;;
38123;SDS011;23934;47.998;9.832;2022-11-20T05:48:43;20.48;;;6.20;;
38123;SDS011;23934;47.998;9.832;2022-11-20T05:51:10;15.50;;;5.97;;
38123;SDS011;23934;47.998;9.832;2022-11-20T05:53:36;17.98;;;6.35;;
38123;SDS011;23934;47.998;9.832;2022-11-20T05:56:03;18.17;;;6.60;;
38123;SDS011;23934;47.998;9.832;2022-11-20T05:58:29;14.50;;;5.10;;
38123;SDS011;23934;47.998;9.832;2022-11-20T06:01:03;17.33;;;4.72;;
38123;SDS011;23934;47.998;9.832;2022-11-20T06:03:29;16.90;;;5.57;;
38123;SDS011;23934;47.998;9.832;2022-11-20T06:05:55;11.48;;;5.32;;
38123;SDS011;23934;47.998;9.832;2022-11-20T06:08:21;12.13;;;4.70;;
38123;SDS011;23934;47.998;9.832;2022-11-20T06:10:47;18.15;;;6.97;;
38123;SDS011;23934;47.998;9.832;2022-11-20T06:13:13;12.75;;;5.50;;
38123;SDS011;23934;47.998;9.832;2022-11-20T06:15:39;21.67;;;6.25;;
38123;SDS011;23934;47.998;9.832;2022-11-20T06:18:05;16.05;;;6.38;;
38123;SDS011;23934;47.998;9.832;2022-11-20T06:20:31;16.98;;;6.45;;
38123;SDS011;23934;47.998;9.832;2022-11-20T06:22:57;16.98;;;6.13;;
38123;SDS011;23934;47.998;9.832;2022-11-20T06:25:23;21.50;;;5.18;;
38123;SDS011;23934;47.998;9.832;2022-11-20T06:27:49;6.45;;;3.42;;
38123;SDS011;23934;47.998;9.832;2022-11-20T06:30:15;13.18;;;5.20;;
38123;SDS011;23934;47.998;9.832;2022-11-20T06:32:40;24.02;;;6.15;;
38123;SDS011;23934;47.998;9.832;2022-11-20T06:35:07;13.55;;;5.38;;
38123;SDS011;23934;47.998;9.832;2022-11-20T06:37:33;12.05;;;4.95;;
38123;SDS011;23934;47.998;9.832;2022-11-20T06:39:59;19.15;;;5.22;;
38123;SDS011;23934;47.998;9.832;2022-11-20T06:42:24;15.77;;;5.68;;
38123;SDS011;23934;47.998;9.832;2022-11-20T06:44:50;11.98;;;4.93;;
38123;SDS011;23934;47.998;9.832;2022-11-20T06:47:17;19.60;;;6.75;;
38123;SDS011;23934;47.998;9.832;2022-11-20T06:49:43;11.70;;;5.45;;
38123;SDS011;23934;47.998;9.832;2022-11-20T06:52:08;14.35;;;5.25;;
38123;SDS011;23934;47.998;9.832;2022-11-20T06:54:34;13.52;;;4.35;;
38123;SDS011;23934;47.998;9.832;2022-11-20T06:57:00;13.35;;;4.70;;
38123;SDS011;23934;47.998;9.832;2022-11-20T06:59:26;19.50;;;5.15;;
38123;SDS011;23934;47.998;9.832;2022-11-20T07:01:52;12.70;;;4.57;;
38123;SDS011;23934;47.998;9.832;2022-11-20T07:04:18;13.73;;;4.55;;
38123;SDS011;23934;47.998;9.832;2022-11-20T07:06:44;11.25;;;4.40;;
38123;SDS011;23934;47.998;9.832;2022-11-20T07:09:10;10.82;;;3.83;;
38123;SDS011;23934;47.998;9.832;2022-11-20T07:11:36;11.00;;;4.53;;
38123;SDS011;23934;47.998;9.832;2022-11-20T07:14:02;13.05;;;4.22;;
38123;SDS011;23934;47.998;9.832;2022-11-20T07:16:28;11.70;;;4.90;;
38123;SDS011;23934;47.998;9.832;2022-11-20T07:18:55;11.38;;;4.68;;
38123;SDS011;23934;47.998;9.832;2022-11-20T07:21:21;9.68;;;4.30;;
38123;SDS011;23934;47.998;9.832;2022-11-20T07:23:47;14.18;;;4.43;;
38123;SDS011;23934;47.998;9.832;2022-11-20T07:26:13;7.95;;;3.95;;
38123;SDS011;23934;47.998;9.832;2022-11-20T07:28:39;10.43;;;3.45;;
38123;SDS011;23934;47.998;9.832;2022-11-20T07:31:05;8.63;;;4.15;;
38123;SDS011;23934;47.998;9.832;2022-11-20T07:33:32;10.55;;;4.32;;
38123;SDS011;23934;47.998;9.832;2022-11-20T07:35:58;17.63;;;4.30;;
38123;SDS011;23934;47.998;9.832;2022-11-20T07:38:25;11.30;;;3.30;;
38123;SDS011;23934;47.998;9.832;2022-11-20T07:40:54;8.02;;;3.30;;
38123;SDS011;23934;47.998;9.832;2022-11-20T07:43:21;7.85;;;3.58;;
38123;SDS011;23934;47.998;9.832;2022-11-20T07:45:47;6.38;;;3.85;;
38123;SDS011;23934;47.998;9.832;2022-11-20T07:48:12;9.45;;;3.92;;
38123;SDS011;23934;47.998;9.832;2022-11-20T07:50:38;7.93;;;3.50;;
38123;SDS011;23934;47.998;9.832;2022-11-20T07:53:04;6.75;;;3.42;;
38123;SDS011;23934;47.998;9.832;2022-11-20T07:55:31;9.75;;;2.55;;
38123;SDS011;23934;47.998;9.832;2022-11-20T07:57:57;9.35;;;3.60;;
38123;SDS011;23934;47.998;9.832;2022-11-20T08:00:24;7.75;;;2.70;;
38123;SDS011;23934;47.998;9.832;2022-11-20T08:02:50;8.23;;;2.75;;
38123;SDS011;23934;47.998;9.832;2022-11-20T08:05:16;10.45;;;3.78;;
38123;SDS011;23934;47.998;9.832;2022-11-20T08:07:42;5.80;;;2.05;;
38123;SDS011;23934;47.998;9.832;2022-11-20T08:10:10;6.35;;;2.90;;
38123;SDS011;23934;47.998;9.832;2022-11-20T08:12:42;5.88;;;3.00;;
38123;SDS011;23934;47.998;9.832;2022-11-20T08:15:27;8.23;;;3.80;;
38123;SDS011;23934;47.998;9.832;2022-11-20T08:17:59;7.57;;;2.40;;
38123;SDS011;23934;47.998;9.832;2022-11-20T08:20:25;8.88;;;3.08;;
38123;SDS011;23934;47.998;9.832;2022-11-20T08:22:51;8.77;;;3.38;;
38123;SDS011;23934;47.998;9.832;2022-11-20T08:25:17;5.50;;;2.35;;
38123;SDS011;23934;47.998;9.832;2022-11-20T08:27:42;5.68;;;2.45;;
38123;SDS011;23934;47.998;9.832;2022-11-20T08:30:09;9.52;;;3.50;;
38123;SDS011;23934;47.998;9.832;2022-11-20T08:32:35;7.25;;;2.70;;
38123;SDS011;23934;47.998;9.832;2022-11-20T08:35:02;3.70;;;1.52;;
38123;SDS011;23934;47.998;9.832;2022-11-20T08:37:28;4.78;;;2.65;;
38123;SDS011;23934;47.998;9.832;2022-11-20T08:39:54;7.97;;;3.75;;
38123;SDS011;23934;47.998;9.832;2022-11-20T08:42:21;9.82;;;4.22;;
38123;SDS011;23934;47.998;9.832;2022-11-20T08:44:47;9.90;;;3.50;;
38123;SDS011;23934;47.998;9.832;2022-11-20T08:47:13;19.63;;;6.05;;
38123;SDS011;23934;47.998;9.832;2022-11-20T08:49:39;18.77;;;7.15;;
38123;SDS011;23934;47.998;9.832;2022-11-20T08:52:05;12.27;;;4.55;;
38123;SDS011;23934;47.998;9.832;2022-11-20T08:54:31;7.63;;;3.05;;
38123;SDS011;23934;47.998;9.832;2022-11-20T08:56:57;7.40;;;2.78;;
38123;SDS011;23934;47.998;9.832;2022-11-20T08:59:23;5.90;;;2.55;;
38123;SDS011;23934;47.998;9.832;2022-11-20T09:01:49;4.88;;;2.67;;
38123;SDS011;23934;47.998;9.832;2022-11-20T09:04:15;7.43;;;2.17;;
38123;SDS011;23934;47.998;9.832;2022-11-20T09:06:41;15.02;;;4.43;;
38123;SDS011;23934;47.998;9.832;2022-11-20T09:09:07;21.45;;;6.25;;
38123;SDS011;23934;47.998;9.832;2022-11-20T09:11:36;16.20;;;5.25;;
38123;SDS011;23934;47.998;9.832;2022-11-20T09:14:02;8.98;;;3.28;;
38123;SDS011;23934;47.998;9.832;2022-11-20T09:16:29;6.00;;;2.35;;
38123;SDS011;23934;47.998;9.832;2022-11-20T09:18:55;17.80;;;5.47;;
38123;SDS011;23934;47.998;9.832;2022-11-20T09:21:21;13.60;;;3.75;;
38123;SDS011;23934;47.998;9.832;2022-11-20T09:23:47;20.10;;;6.72;;
38123;SDS011;23934;47.998;9.832;2022-11-20T09:26:14;9.25;;;2.60;;
38123;SDS011;23934;47.998;9.832;2022-11-20T09:28:40;43.53;;;10.38;;
38123;SDS011;23934;47.998;9.832;2022-11-20T09:31:07;58.53;;;10.80;;
38123;SDS011;23934;47.998;9.832;2022-11-20T09:33:33;47.33;;;10.18;;
38123;SDS011;23934;47.998;9.832;2022-11-20T09:35:59;61.97;;;11.88;;
38123;SDS011;23934;47.998;9.832;2022-11-20T09:38:25;19.38;;;6.18;;
38123;SDS011;23934;47.998;9.832;2022-11-20T09:40:56;13.63;;;3.45;;
38123;SDS011;23934;47.998;9.832;2022-11-20T09:43:29;39.88;;;8.63;;
38123;SDS011;23934;47.998;9.832;2022-11-20T09:51:35;2.72;;;1.73;;
38123;SDS011;23934;47.998;9.832;2022-11-20T09:54:16;8.00;;;2.50;;
38123;SDS011;23934;47.998;9.832;2022-11-20T09:57:02;22.75;;;4.65;;
38123;SDS011;23934;47.998;9.832;2022-11-20T09:59:32;7.65;;;2.83;;
38123;SDS011;23934;47.998;9.832;2022-11-20T10:01:59;7.55;;;2.53;;
38123;SDS011;23934;47.998;9.832;2022-11-20T10:04:26;14.02;;;2.95;;
38123;SDS011;23934;47.998;9.832;2022-11-20T10:06:56;5.53;;;2.33;;
38123;SDS011;23934;47.998;9.832;2022-11-20T10:09:30;5.20;;;1.85;;
38123;SDS011;23934;47.998;9.832;2022-11-20T10:12:12;6.65;;;2.65;;
38123;SDS011;23934;47.998;9.832;2022-11-20T10:20:02;6.07;;;2.70;;
38123;SDS011;23934;47.998;9.832;2022-11-20T10:30:15;6.43;;;2.58;;
38123;SDS011;23934;47.998;9.832;2022-11-20T10:32:43;5.03;;;2.60;;
38123;SDS011;23934;47.998;9.832;2022-11-20T10:37:35;6.55;;;1.88;;
38123;SDS011;23934;47.998;9.832;2022-11-20T10:42:45;2.63;;;1.77;;
38123;SDS011;23934;47.998;9.832;2022-11-20T10:47:50;2.25;;;1.50;;
38123;SDS011;23934;47.998;9.832;2022-11-20T10:50:18;2.63;;;1.70;;
38123;SDS011;23934;47.998;9.832;2022-11-20T10:55:46;5.20;;;2.13;;
38123;SDS011;23934;47.998;9.832;2022-11-20T10:58:16;4.30;;;1.88;;
38123;SDS011;23934;47.998;9.832;2022-11-20T11:00:45;5.20;;;1.77;;
38123;SDS011;23934;47.998;9.832;2022-11-20T11:03:20;5.47;;;1.50;;
38123;SDS011;23934;47.998;9.832;2022-11-20T11:08:32;3.72;;;1.95;;
38123;SDS011;23934;47.998;9.832;2022-11-20T11:11:02;3.78;;;1.75;;
38123;SDS011;23934;47.998;9.832;2022-11-20T11:13:32;3.13;;;1.75;;
38123;SDS011;23934;47.998;9.832;2022-11-20T11:15:58;3.65;;;1.77;;
38123;SDS011;23934;47.998;9.832;2022-11-20T11:18:26;7.03;;;2.90;;
38123;SDS011;23934;47.998;9.832;2022-11-20T11:20:53;8.68;;;3.17;;
38123;SDS011;23934;47.998;9.832;2022-11-20T11:23:38;2.83;;;1.40;;
38123;SDS011;23934;47.998;9.832;2022-11-20T11:26:05;5.70;;;1.35;;
38123;SDS011;23934;47.998;9.832;2022-11-20T11:28:31;2.55;;;1.42;;
38123;SDS011;23934;47.998;9.832;2022-11-20T11:30:57;6.45;;;2.00;;
38123;SDS011;23934;47.998;9.832;2022-11-20T11:33:28;2.60;;;1.38;;
38123;SDS011;23934;47.998;9.832;2022-11-20T11:35:58;4.40;;;1.63;;
38123;SDS011;23934;47.998;9.832;2022-11-20T11:38:38;6.00;;;2.08;;
38123;SDS011;23934;47.998;9.832;2022-11-20T11:41:05;6.18;;;3.13;;
38123;SDS011;23934;47.998;9.832;2022-11-20T11:43:35;4.00;;;2.10;;
38123;SDS011;23934;47.998;9.832;2022-11-20T11:54:14;4.50;;;2.45;;
38123;SDS011;23934;47.998;9.832;2022-11-20T11:56:42;16.73;;;4.00;;
38123;SDS011;23934;47.998;9.832;2022-11-20T11:59:09;9.35;;;3.72;;
38123;SDS011;23934;47.998;9.832;2022-11-20T12:01:41;10.73;;;3.08;;
38123;SDS011;23934;47.998;9.832;2022-11-20T12:04:23;4.88;;;1.70;;
38123;SDS011;23934;47.998;9.832;2022-11-20T12:06:58;6.15;;;2.72;;
38123;SDS011;23934;47.998;9.832;2022-11-20T12:09:27;5.25;;;2.35;;
38123;SDS011;23934;47.998;9.832;2022-11-20T12:12:05;10.88;;;2.67;;
38123;SDS011;23934;47.998;9.832;2022-11-20T12:14:37;5.40;;;2.50;;
38123;SDS011;23934;47.998;9.832;2022-11-20T12:17:04;5.00;;;2.40;;
38123;SDS011;23934;47.998;9.832;2022-11-20T12:19:31;4.65;;;2.47;;
38123;SDS011;23934;47.998;9.832;2022-11-20T12:37:23;6.63;;;1.30;;
38123;SDS011;23934;47.998;9.832;2022-11-20T12:39:56;6.97;;;2.85;;
38123;SDS011;23934;47.998;9.832;2022-11-20T12:45:27;8.13;;;2.53;;
38123;SDS011;23934;47.998;9.832;2022-11-20T12:58:26;4.70;;;1.42;;
38123;SDS011;23934;47.998;9.832;2022-11-20T13:01:00;2.97;;;1.30;;
38123;SDS011;23934;47.998;9.832;2022-11-20T13:03:42;2.50;;;1.52;;
38123;SDS011;23934;47.998;9.832;2022-11-20T13:08:37;3.33;;;1.30;;
38123;SDS011;23934;47.998;9.832;2022-11-20T13:11:13;4.90;;;1.67;;
38123;SDS011;23934;47.998;9.832;2022-11-20T13:18:41;5.07;;;1.30;;
38123;SDS011;23934;47.998;9.832;2022-11-20T13:21:14;3.75;;;1.13;;
38123;SDS011;23934;47.998;9.832;2022-11-20T13:23:41;5.82;;;1.45;;
38123;SDS011;23934;47.998;9.832;2022-11-20T13:26:39;1.88;;;1.27;;
38123;SDS011;23934;47.998;9.832;2022-11-20T13:31:28;2.80;;;1.38;;
38123;SDS011;23934;47.998;9.832;2022-11-20T13:33:56;5.70;;;1.13;;
38123;SDS011;23934;47.998;9.832;2022-11-20T13:36:24;2.67;;;1.30;;
38123;SDS011;23934;47.998;9.832;2022-11-20T13:38:51;2.20;;;0.93;;
38123;SDS011;23934;47.998;9.832;2022-11-20T13:41:24;1.83;;;1.05;;
38123;SDS011;23934;47.998;9.832;2022-11-20T13:44:15;1.60;;;1.13;;
38123;SDS011;23934;47.998;9.832;2022-11-20T13:46:45;3.65;;;1.40;;
38123;SDS011;23934;47.998;9.832;2022-11-20T13:49:16;2.28;;;1.30;;
38123;SDS011;23934;47.998;9.832;2022-11-20T13:51:44;1.73;;;1.27;;
38123;SDS011;23934;47.998;9.832;2022-11-20T14:01:48;2.05;;;0.85;;
38123;SDS011;23934;47.998;9.832;2022-11-20T14:04:18;2.50;;;0.93;;
38123;SDS011;23934;47.998;9.832;2022-11-20T14:06:46;15.95;;;6.60;;
38123;SDS011;23934;47.998;9.832;2022-11-20T14:09:13;4.88;;;1.77;;
38123;SDS011;23934;47.998;9.832;2022-11-20T14:11:49;0.75;;;0.68;;
38123;SDS011;23934;47.998;9.832;2022-11-20T14:14:17;1.90;;;0.82;;
38123;SDS011;23934;47.998;9.832;2022-11-20T14:16:46;1.45;;;0.80;;
38123;SDS011;23934;47.998;9.832;2022-11-20T14:21:55;2.30;;;1.00;;
38123;SDS011;23934;47.998;9.832;2022-11-20T14:24:31;3.53;;;1.00;;
38123;SDS011;23934;47.998;9.832;2022-11-20T14:26:57;1.88;;;1.13;;
38123;SDS011;23934;47.998;9.832;2022-11-20T14:29:30;3.25;;;1.08;;
38123;SDS011;23934;47.998;9.832;2022-11-20T14:31:59;6.25;;;1.85;;
38123;SDS011;23934;47.998;9.832;2022-11-20T14:34:25;7.40;;;1.67;;
38123;SDS011;23934;47.998;9.832;2022-11-20T14:36:55;3.80;;;1.65;;
38123;SDS011;23934;47.998;9.832;2022-11-20T14:39:22;10.60;;;3.30;;
38123;SDS011;23934;47.998;9.832;2022-11-20T14:41:51;11.35;;;2.22;;
38123;SDS011;23934;47.998;9.832;2022-11-20T14:44:18;9.73;;;3.42;;
38123;SDS011;23934;47.998;9.832;2022-11-20T14:46:45;13.52;;;3.33;;
38123;SDS011;23934;47.998;9.832;2022-11-20T14:49:11;8.90;;;1.85;;
38123;SDS011;23934;47.998;9.832;2022-11-20T14:51:38;3.22;;;1.63;;
38123;SDS011;23934;47.998;9.832;2022-11-20T14:54:17;1.50;;;0.85;;
38123;SDS011;23934;47.998;9.832;2022-11-20T14:59:25;2.70;;;1.58;;
38123;SDS011;23934;47.998;9.832;2022-11-20T15:04:26;2.88;;;1.40;;
38123;SDS011;23934;47.998;9.832;2022-11-20T15:06:57;2.83;;;1.33;;
38123;SDS011;23934;47.998;9.832;2022-11-20T15:09:23;2.40;;;1.40;;
38123;SDS011;23934;47.998;9.832;2022-11-20T15:11:56;2.03;;;1.00;;
38123;SDS011;23934;47.998;9.832;2022-11-20T15:14:23;2.58;;;1.08;;
38123;SDS011;23934;47.998;9.832;2022-11-20T15:16:49;2.13;;;1.35;;
38123;SDS011;23934;47.998;9.832;2022-11-20T15:19:20;4.97;;;1.90;;
38123;SDS011;23934;47.998;9.832;2022-11-20T15:21:46;5.57;;;2.17;;
38123;SDS011;23934;47.998;9.832;2022-11-20T15:24:12;5.25;;;2.17;;
38123;SDS011;23934;47.998;9.832;2022-11-20T15:26:39;16.73;;;4.05;;
38123;SDS011;23934;47.998;9.832;2022-11-20T15:29:06;4.15;;;2.97;;
38123;SDS011;23934;47.998;9.832;2022-11-20T15:31:33;2.67;;;1.00;;
38123;SDS011;23934;47.998;9.832;2022-11-20T15:33:59;31.30;;;7.35;;
38123;SDS011;23934;47.998;9.832;2022-11-20T15:36:25;32.53;;;7.97;;
38123;SDS011;23934;47.998;9.832;2022-11-20T15:38:51;48.30;;;11.82;;
38123;SDS011;23934;47.998;9.832;2022-11-20T15:41:17;53.53;;;12.75;;
38123;SDS011;23934;47.998;9.832;2022-11-20T15:43:43;99.53;;;19.27;;
38123;SDS011;23934;47.998;9.832;2022-11-20T15:46:11;49.03;;;11.65;;
38123;SDS011;23934;47.998;9.832;2022-11-20T15:48:42;29.95;;;6.78;;
38123;SDS011;23934;47.998;9.832;2022-11-20T15:51:21;31.42;;;8.93;;
38123;SDS011;23934;47.998;9.832;2022-11-20T15:53:48;73.65;;;13.82;;
38123;SDS011;23934;47.998;9.832;2022-11-20T15:56:14;42.83;;;8.70;;
38123;SDS011;23934;47.998;9.832;2022-11-20T15:58:40;33.58;;;7.10;;
38123;SDS011;23934;47.998;9.832;2022-11-20T16:01:13;37.15;;;7.97;;
38123;SDS011;23934;47.998;9.832;2022-11-20T16:03:40;15.75;;;4.45;;
38123;SDS011;23934;47.998;9.832;2022-11-20T16:06:06;3.22;;;1.20;;
38123;SDS011;23934;47.998;9.832;2022-11-20T16:08:32;6.80;;;2.72;;
38123;SDS011;23934;47.998;9.832;2022-11-20T16:10:58;3.88;;;1.50;;
38123;SDS011;23934;47.998;9.832;2022-11-20T16:13:24;2.13;;;1.30;;
38123;SDS011;23934;47.998;9.832;2022-11-20T16:16:11;3.28;;;1.55;;
38123;SDS011;23934;47.998;9.832;2022-11-20T16:18:40;3.67;;;1.60;;
38123;SDS011;23934;47.998;9.832;2022-11-20T16:21:10;2.15;;;1.30;;
38123;SDS011;23934;47.998;9.832;2022-11-20T16:23:37;6.47;;;2.10;;
38123;SDS011;23934;47.998;9.832;2022-11-20T16:26:10;5.32;;;1.83;;